N417MK K3R9-KSOA
Flight info
| Callsign | N417MK |
|---|---|
| Flight time | 1h 2m |
| Altitude | 18000 |
| Route | AMUSE V306 JCT |
| Aircraft | BT36/L-BDFGLORY/S |
Departure
| Time | 2026-05-07 03:54 |
|---|---|
| Airport | Lakeway Airpark (K3R9) |
Arrival
| Time | 2026-05-07 04:56 |
|---|---|
| Airport | Sonora Municipal Airport (KSOA) |
| Time | Latitude | Longitude | Altitude | Speed | Heading |
|---|---|---|---|---|---|
| 2026-05-07 03:42 | 30.35863 | -97.99437 | 908 ft | 0 kts | 268° |
| 2026-05-07 03:51 | 30.35861 | -97.99449 | 908 ft | 5 kts | 243° |
| 2026-05-07 03:51 | 30.35793 | -97.99454 | 911 ft | 15 kts | 173° |
| 2026-05-07 03:52 | 30.35653 | -97.99424 | 913 ft | 23 kts | 168° |
| 2026-05-07 03:52 | 30.35512 | -97.99393 | 921 ft | 19 kts | 171° |
| 2026-05-07 03:52 | 30.35391 | -97.99366 | 925 ft | 17 kts | 168° |
| 2026-05-07 03:52 | 30.35280 | -97.99343 | 923 ft | 14 kts | 173° |
| 2026-05-07 03:53 | 30.35217 | -97.99343 | 926 ft | 5 kts | 134° |
| 2026-05-07 03:53 | 30.35234 | -97.99331 | 925 ft | 3 kts | 354° |
| 2026-05-07 03:53 | 30.35313 | -97.99349 | 925 ft | 31 kts | 349° |
| 2026-05-07 03:53 | 30.35785 | -97.99461 | 955 ft | 97 kts | 349° |
| 2026-05-07 03:54 | 30.36452 | -97.99672 | 1433 ft | 97 kts | 336° |
| 2026-05-07 03:54 | 30.36960 | -98.00197 | 1944 ft | 104 kts | 311° |
| 2026-05-07 03:54 | 30.37219 | -98.01017 | 2439 ft | 115 kts | 283° |
| 2026-05-07 03:54 | 30.37285 | -98.01932 | 2925 ft | 116 kts | 279° |
| 2026-05-07 03:55 | 30.37358 | -98.02888 | 3308 ft | 123 kts | 278° |
| 2026-05-07 03:55 | 30.37429 | -98.03889 | 3599 ft | 130 kts | 278° |
| 2026-05-07 03:55 | 30.37512 | -98.04917 | 4003 ft | 127 kts | 278° |
| 2026-05-07 03:55 | 30.37663 | -98.05908 | 4390 ft | 123 kts | 290° |
| 2026-05-07 03:56 | 30.38010 | -98.06798 | 4817 ft | 119 kts | 295° |
| 2026-05-07 03:56 | 30.38366 | -98.07650 | 5257 ft | 116 kts | 294° |
| 2026-05-07 03:56 | 30.38688 | -98.08501 | 5717 ft | 113 kts | 292° |
| 2026-05-07 03:56 | 30.38985 | -98.09333 | 6178 ft | 110 kts | 291° |
| 2026-05-07 03:57 | 30.39263 | -98.10140 | 6627 ft | 106 kts | 291° |
| 2026-05-07 03:57 | 30.39523 | -98.10920 | 7070 ft | 102 kts | 289° |
| 2026-05-07 03:57 | 30.39770 | -98.11671 | 7515 ft | 98 kts | 288° |
| 2026-05-07 03:57 | 30.40011 | -98.12397 | 7925 ft | 96 kts | 288° |
| 2026-05-07 03:58 | 30.40252 | -98.13114 | 8333 ft | 95 kts | 287° |
| 2026-05-07 03:58 | 30.40493 | -98.13836 | 8729 ft | 97 kts | 287° |
| 2026-05-07 03:58 | 30.40738 | -98.14566 | 9132 ft | 98 kts | 286° |
| 2026-05-07 03:58 | 30.40983 | -98.15304 | 9535 ft | 99 kts | 285° |
| 2026-05-07 03:59 | 30.41229 | -98.16052 | 9922 ft | 101 kts | 285° |
| 2026-05-07 03:59 | 30.41486 | -98.16821 | 10266 ft | 104 kts | 284° |
| 2026-05-07 03:59 | 30.41746 | -98.17611 | 10666 ft | 106 kts | 284° |
| 2026-05-07 03:59 | 30.42013 | -98.18418 | 11028 ft | 109 kts | 283° |
| 2026-05-07 04:00 | 30.42285 | -98.19243 | 11389 ft | 110 kts | 283° |
| 2026-05-07 04:00 | 30.42561 | -98.20080 | 11751 ft | 112 kts | 282° |
| 2026-05-07 04:00 | 30.42840 | -98.20928 | 12118 ft | 113 kts | 282° |
| 2026-05-07 04:00 | 30.43122 | -98.21787 | 12487 ft | 114 kts | 281° |
| 2026-05-07 04:01 | 30.43407 | -98.22649 | 12852 ft | 115 kts | 281° |
| 2026-05-07 04:01 | 30.43691 | -98.23512 | 13234 ft | 115 kts | 279° |
| 2026-05-07 04:01 | 30.43975 | -98.24372 | 13636 ft | 113 kts | 279° |
| 2026-05-07 04:01 | 30.44254 | -98.25214 | 14048 ft | 110 kts | 278° |
| 2026-05-07 04:02 | 30.44524 | -98.26034 | 14442 ft | 108 kts | 278° |
| 2026-05-07 04:02 | 30.44787 | -98.26836 | 14833 ft | 105 kts | 277° |
| 2026-05-07 04:02 | 30.45042 | -98.27614 | 15232 ft | 102 kts | 277° |
| 2026-05-07 04:02 | 30.45289 | -98.28369 | 15637 ft | 98 kts | 276° |
| 2026-05-07 04:03 | 30.45531 | -98.29107 | 16005 ft | 98 kts | 276° |
| 2026-05-07 04:03 | 30.45718 | -98.29850 | 16370 ft | 93 kts | 266° |
| 2026-05-07 04:03 | 30.45758 | -98.30585 | 16738 ft | 91 kts | 263° |
| 2026-05-07 04:03 | 30.45811 | -98.31319 | 17112 ft | 91 kts | 265° |
| 2026-05-07 04:04 | 30.45884 | -98.32049 | 17491 ft | 91 kts | 265° |
| 2026-05-07 04:04 | 30.45959 | -98.32775 | 17850 ft | 92 kts | 265° |
| 2026-05-07 04:04 | 30.46009 | -98.33274 | 18015 ft | 100 kts | 265° |
| 2026-05-07 04:04 | 30.46092 | -98.34167 | 18052 ft | 123 kts | 267° |
| 2026-05-07 04:05 | 30.46198 | -98.35230 | 18073 ft | 141 kts | 268° |
| 2026-05-07 04:05 | 30.46321 | -98.36405 | 18076 ft | 150 kts | 269° |
| 2026-05-07 04:05 | 30.46450 | -98.37594 | 18070 ft | 148 kts | 269° |
| 2026-05-07 04:05 | 30.46570 | -98.38772 | 18063 ft | 146 kts | 268° |
| 2026-05-07 04:06 | 30.46684 | -98.39937 | 18059 ft | 145 kts | 268° |
| 2026-05-07 04:06 | 30.46797 | -98.41095 | 18058 ft | 144 kts | 268° |
| 2026-05-07 04:06 | 30.46908 | -98.42247 | 18056 ft | 143 kts | 268° |
| 2026-05-07 04:06 | 30.47019 | -98.43391 | 18055 ft | 142 kts | 268° |
| 2026-05-07 04:07 | 30.47129 | -98.44531 | 17986 ft | 142 kts | 268° |
| 2026-05-07 04:07 | 30.47240 | -98.45666 | 17986 ft | 142 kts | 268° |
| 2026-05-07 04:07 | 30.47350 | -98.46801 | 17988 ft | 141 kts | 268° |
| 2026-05-07 04:07 | 30.47460 | -98.47930 | 17992 ft | 141 kts | 268° |
| 2026-05-07 04:08 | 30.47569 | -98.49069 | 17994 ft | 144 kts | 268° |
| 2026-05-07 04:08 | 30.47680 | -98.50238 | 17998 ft | 148 kts | 268° |
| 2026-05-07 04:08 | 30.47796 | -98.51437 | 18001 ft | 151 kts | 268° |
| 2026-05-07 04:08 | 30.47916 | -98.52661 | 18004 ft | 154 kts | 268° |
| 2026-05-07 04:09 | 30.48037 | -98.53896 | 18002 ft | 155 kts | 268° |
| 2026-05-07 04:09 | 30.48158 | -98.55143 | 18004 ft | 156 kts | 268° |
| 2026-05-07 04:09 | 30.48279 | -98.56392 | 18006 ft | 156 kts | 268° |
| 2026-05-07 04:09 | 30.48401 | -98.57650 | 18006 ft | 157 kts | 269° |
| 2026-05-07 04:10 | 30.48523 | -98.58910 | 18007 ft | 157 kts | 269° |
| 2026-05-07 04:10 | 30.48645 | -98.60173 | 18006 ft | 158 kts | 268° |
| 2026-05-07 04:10 | 30.48768 | -98.61440 | 18012 ft | 159 kts | 268° |
| 2026-05-07 04:10 | 30.48889 | -98.62714 | 18012 ft | 159 kts | 269° |
| 2026-05-07 04:11 | 30.49012 | -98.63996 | 18015 ft | 160 kts | 269° |
| 2026-05-07 04:11 | 30.49137 | -98.65283 | 18015 ft | 161 kts | 269° |
| 2026-05-07 04:11 | 30.49263 | -98.66569 | 18017 ft | 158 kts | 269° |
| 2026-05-07 04:11 | 30.49391 | -98.67802 | 18011 ft | 152 kts | 269° |
| 2026-05-07 04:12 | 30.49507 | -98.69015 | 18010 ft | 152 kts | 268° |
| 2026-05-07 04:12 | 30.49616 | -98.70243 | 18013 ft | 155 kts | 268° |
| 2026-05-07 04:12 | 30.49731 | -98.71492 | 18014 ft | 156 kts | 268° |
| 2026-05-07 04:12 | 30.49850 | -98.72752 | 18022 ft | 158 kts | 268° |
| 2026-05-07 04:13 | 30.49971 | -98.74025 | 18012 ft | 159 kts | 268° |
| 2026-05-07 04:13 | 30.50094 | -98.75306 | 18013 ft | 160 kts | 268° |
| 2026-05-07 04:13 | 30.50218 | -98.76592 | 18010 ft | 161 kts | 268° |
| 2026-05-07 04:13 | 30.50341 | -98.77882 | 18008 ft | 161 kts | 268° |
| 2026-05-07 04:14 | 30.50465 | -98.79171 | 18008 ft | 161 kts | 268° |
| 2026-05-07 04:14 | 30.50587 | -98.80461 | 18010 ft | 161 kts | 268° |
| 2026-05-07 04:14 | 30.50710 | -98.81749 | 18006 ft | 161 kts | 268° |
| 2026-05-07 04:14 | 30.50833 | -98.83038 | 18008 ft | 161 kts | 268° |
| 2026-05-07 04:15 | 30.50954 | -98.84326 | 18005 ft | 161 kts | 268° |
| 2026-05-07 04:15 | 30.51076 | -98.85617 | 18003 ft | 161 kts | 268° |
| 2026-05-07 04:15 | 30.51199 | -98.86907 | 18003 ft | 161 kts | 268° |
| 2026-05-07 04:15 | 30.51321 | -98.88197 | 18003 ft | 161 kts | 268° |
| 2026-05-07 04:16 | 30.51442 | -98.89492 | 18006 ft | 161 kts | 268° |
| 2026-05-07 04:16 | 30.51564 | -98.90786 | 18005 ft | 162 kts | 268° |
| 2026-05-07 04:16 | 30.51686 | -98.92082 | 18000 ft | 162 kts | 268° |
| 2026-05-07 04:16 | 30.51808 | -98.93378 | 17998 ft | 162 kts | 268° |
| 2026-05-07 04:17 | 30.51930 | -98.94679 | 17993 ft | 162 kts | 268° |
| 2026-05-07 04:17 | 30.52051 | -98.95980 | 17994 ft | 162 kts | 268° |
| 2026-05-07 04:17 | 30.52173 | -98.97280 | 17994 ft | 162 kts | 268° |
| 2026-05-07 04:17 | 30.52295 | -98.98580 | 17994 ft | 162 kts | 268° |
| 2026-05-07 04:18 | 30.52417 | -98.99882 | 17994 ft | 162 kts | 268° |
| 2026-05-07 04:18 | 30.52538 | -99.01183 | 17995 ft | 162 kts | 268° |
| 2026-05-07 04:18 | 30.52660 | -99.02486 | 17996 ft | 163 kts | 268° |
| 2026-05-07 04:18 | 30.52781 | -99.03793 | 17995 ft | 163 kts | 268° |
| 2026-05-07 04:19 | 30.52903 | -99.05101 | 17998 ft | 163 kts | 268° |
| 2026-05-07 04:19 | 30.53024 | -99.06410 | 17998 ft | 164 kts | 268° |
| 2026-05-07 04:19 | 30.53146 | -99.07723 | 17997 ft | 164 kts | 268° |
| 2026-05-07 04:19 | 30.53268 | -99.09040 | 18004 ft | 164 kts | 268° |
| 2026-05-07 04:20 | 30.53389 | -99.10356 | 18001 ft | 165 kts | 269° |
| 2026-05-07 04:20 | 30.53511 | -99.11678 | 17998 ft | 165 kts | 269° |
| 2026-05-07 04:20 | 30.53634 | -99.13000 | 17994 ft | 165 kts | 269° |
| 2026-05-07 04:21 | 30.53879 | -99.15653 | 17949 ft | 166 kts | 269° |
| 2026-05-07 04:21 | 30.54002 | -99.16979 | 17947 ft | 165 kts | 269° |
| 2026-05-07 04:21 | 30.54124 | -99.18303 | 17941 ft | 165 kts | 269° |
| 2026-05-07 04:21 | 30.54246 | -99.19625 | 17951 ft | 165 kts | 269° |
| 2026-05-07 04:22 | 30.54367 | -99.20945 | 17938 ft | 164 kts | 269° |
| 2026-05-07 04:22 | 30.54488 | -99.22262 | 17933 ft | 164 kts | 269° |
| 2026-05-07 04:22 | 30.54608 | -99.23577 | 17939 ft | 164 kts | 269° |
| 2026-05-07 04:22 | 30.54729 | -99.24894 | 17934 ft | 164 kts | 269° |
| 2026-05-07 04:23 | 30.54849 | -99.26210 | 17939 ft | 164 kts | 269° |
| 2026-05-07 04:23 | 30.54969 | -99.27528 | 17939 ft | 164 kts | 269° |
| 2026-05-07 04:23 | 30.55089 | -99.28849 | 17942 ft | 165 kts | 269° |
| 2026-05-07 04:23 | 30.55209 | -99.30174 | 17944 ft | 165 kts | 269° |
| 2026-05-07 04:24 | 30.55330 | -99.31499 | 17941 ft | 165 kts | 269° |
| 2026-05-07 04:24 | 30.55450 | -99.32830 | 17940 ft | 166 kts | 269° |
| 2026-05-07 04:24 | 30.55570 | -99.34159 | 17938 ft | 166 kts | 269° |
| 2026-05-07 04:24 | 30.55691 | -99.35489 | 17936 ft | 166 kts | 269° |
| 2026-05-07 04:25 | 30.55811 | -99.36815 | 17933 ft | 165 kts | 269° |
| 2026-05-07 04:25 | 30.55932 | -99.38139 | 17943 ft | 165 kts | 269° |
| 2026-05-07 04:25 | 30.56052 | -99.39464 | 17940 ft | 165 kts | 269° |
| 2026-05-07 04:25 | 30.56172 | -99.40787 | 17942 ft | 165 kts | 269° |
| 2026-05-07 04:26 | 30.56290 | -99.42107 | 17947 ft | 165 kts | 269° |
| 2026-05-07 04:26 | 30.56410 | -99.43428 | 17947 ft | 165 kts | 269° |
| 2026-05-07 04:26 | 30.56527 | -99.44732 | 17949 ft | 164 kts | 269° |
| 2026-05-07 04:26 | 30.56645 | -99.46052 | 17953 ft | 165 kts | 269° |
| 2026-05-07 04:27 | 30.56763 | -99.47375 | 17964 ft | 165 kts | 269° |
| 2026-05-07 04:27 | 30.56882 | -99.48701 | 17972 ft | 165 kts | 269° |
| 2026-05-07 04:27 | 30.57002 | -99.50027 | 17962 ft | 165 kts | 269° |
| 2026-05-07 04:27 | 30.57121 | -99.51355 | 17965 ft | 165 kts | 269° |
| 2026-05-07 04:28 | 30.57239 | -99.52681 | 17966 ft | 165 kts | 269° |
| 2026-05-07 04:28 | 30.57358 | -99.54007 | 17969 ft | 165 kts | 269° |
| 2026-05-07 04:28 | 30.57475 | -99.55332 | 17969 ft | 165 kts | 269° |
| 2026-05-07 04:28 | 30.57594 | -99.56676 | 17973 ft | 165 kts | 269° |
| 2026-05-07 04:29 | 30.57710 | -99.57984 | 17976 ft | 165 kts | 269° |
| 2026-05-07 04:29 | 30.57829 | -99.59314 | 17980 ft | 166 kts | 269° |
| 2026-05-07 04:29 | 30.57946 | -99.60644 | 17993 ft | 166 kts | 269° |
| 2026-05-07 04:29 | 30.58065 | -99.61976 | 17990 ft | 166 kts | 269° |
| 2026-05-07 04:30 | 30.58183 | -99.63307 | 17988 ft | 166 kts | 269° |
| 2026-05-07 04:30 | 30.58300 | -99.64641 | 17986 ft | 166 kts | 269° |
| 2026-05-07 04:30 | 30.58418 | -99.65971 | 17989 ft | 166 kts | 269° |
| 2026-05-07 04:30 | 30.58535 | -99.67299 | 17994 ft | 166 kts | 269° |
| 2026-05-07 04:31 | 30.58653 | -99.68628 | 18000 ft | 165 kts | 269° |
| 2026-05-07 04:31 | 30.58769 | -99.69954 | 17990 ft | 165 kts | 269° |
| 2026-05-07 04:31 | 30.58886 | -99.71280 | 17995 ft | 165 kts | 269° |
| 2026-05-07 04:31 | 30.59002 | -99.72604 | 18004 ft | 165 kts | 269° |
| 2026-05-07 04:32 | 30.59119 | -99.73933 | 18006 ft | 165 kts | 269° |
| 2026-05-07 04:32 | 30.59236 | -99.75261 | 18004 ft | 165 kts | 269° |
| 2026-05-07 04:32 | 30.59351 | -99.76582 | 18004 ft | 165 kts | 269° |
| 2026-05-07 04:32 | 30.59467 | -99.77904 | 18000 ft | 164 kts | 269° |
| 2026-05-07 04:33 | 30.59581 | -99.79212 | 17998 ft | 163 kts | 269° |
| 2026-05-07 04:33 | 30.59695 | -99.80515 | 17997 ft | 162 kts | 269° |
| 2026-05-07 04:33 | 30.59865 | -99.81811 | 17993 ft | 165 kts | 276° |
| 2026-05-07 04:33 | 30.60165 | -99.83097 | 17996 ft | 165 kts | 275° |
| 2026-05-07 04:34 | 30.60441 | -99.84384 | 18001 ft | 164 kts | 275° |
| 2026-05-07 04:34 | 30.60707 | -99.85668 | 17996 ft | 163 kts | 275° |
| 2026-05-07 04:34 | 30.60970 | -99.86950 | 17956 ft | 164 kts | 275° |
| 2026-05-07 04:34 | 30.61239 | -99.88264 | 17805 ft | 169 kts | 275° |
| 2026-05-07 04:35 | 30.61515 | -99.89608 | 17659 ft | 173 kts | 275° |
| 2026-05-07 04:35 | 30.61799 | -99.90972 | 17507 ft | 175 kts | 276° |
| 2026-05-07 04:35 | 30.62087 | -99.92343 | 17341 ft | 175 kts | 276° |
| 2026-05-07 04:35 | 30.62378 | -99.93720 | 17108 ft | 177 kts | 276° |
| 2026-05-07 04:36 | 30.62670 | -99.95109 | 16876 ft | 178 kts | 276° |
| 2026-05-07 04:36 | 30.62963 | -99.96508 | 16642 ft | 178 kts | 276° |
| 2026-05-07 04:36 | 30.63256 | -99.97898 | 16408 ft | 177 kts | 276° |
| 2026-05-07 04:36 | 30.63549 | -99.99291 | 16172 ft | 177 kts | 276° |
| 2026-05-07 04:37 | 30.63841 | -100.00687 | 15893 ft | 179 kts | 276° |
| 2026-05-07 04:37 | 30.64135 | -100.02093 | 15618 ft | 179 kts | 276° |
| 2026-05-07 04:37 | 30.64430 | -100.03503 | 15351 ft | 180 kts | 276° |
| 2026-05-07 04:37 | 30.64725 | -100.04914 | 15088 ft | 180 kts | 277° |
| 2026-05-07 04:38 | 30.65020 | -100.06327 | 14829 ft | 180 kts | 277° |
| 2026-05-07 04:38 | 30.65316 | -100.07736 | 14566 ft | 180 kts | 277° |
| 2026-05-07 04:38 | 30.65611 | -100.09142 | 14307 ft | 178 kts | 277° |
| 2026-05-07 04:38 | 30.65902 | -100.10521 | 14055 ft | 174 kts | 277° |
| 2026-05-07 04:39 | 30.66186 | -100.11875 | 13797 ft | 171 kts | 277° |
| 2026-05-07 04:39 | 30.66465 | -100.13211 | 13517 ft | 169 kts | 277° |
| 2026-05-07 04:39 | 30.66740 | -100.14537 | 13234 ft | 168 kts | 277° |
| 2026-05-07 04:39 | 30.67013 | -100.15858 | 12948 ft | 168 kts | 277° |
| 2026-05-07 04:40 | 30.67287 | -100.17175 | 12670 ft | 168 kts | 277° |
| 2026-05-07 04:40 | 30.67561 | -100.18496 | 12406 ft | 168 kts | 277° |
| 2026-05-07 04:40 | 30.67836 | -100.19820 | 12133 ft | 169 kts | 277° |
| 2026-05-07 04:40 | 30.68112 | -100.21150 | 11861 ft | 170 kts | 277° |
| 2026-05-07 04:41 | 30.68389 | -100.22486 | 11598 ft | 170 kts | 277° |
| 2026-05-07 04:41 | 30.68667 | -100.23828 | 11336 ft | 171 kts | 277° |
| 2026-05-07 04:41 | 30.68947 | -100.25175 | 11077 ft | 172 kts | 277° |
| 2026-05-07 04:41 | 30.69228 | -100.26533 | 10820 ft | 173 kts | 277° |
| 2026-05-07 04:42 | 30.69507 | -100.27879 | 10559 ft | 174 kts | 278° |
| 2026-05-07 04:42 | 30.69790 | -100.29243 | 10304 ft | 173 kts | 278° |
| 2026-05-07 04:42 | 30.70072 | -100.30596 | 10049 ft | 171 kts | 278° |
| 2026-05-07 04:42 | 30.70350 | -100.31922 | 9811 ft | 167 kts | 278° |
| 2026-05-07 04:43 | 30.70619 | -100.33208 | 9535 ft | 161 kts | 278° |
| 2026-05-07 04:43 | 30.70876 | -100.34456 | 9260 ft | 157 kts | 278° |
| 2026-05-07 04:43 | 30.71126 | -100.35672 | 8987 ft | 153 kts | 279° |
| 2026-05-07 04:43 | 30.71369 | -100.36857 | 8722 ft | 149 kts | 279° |
| 2026-05-07 04:44 | 30.71530 | -100.37641 | 8551 ft | 147 kts | 280° |
| 2026-05-07 04:44 | 30.71764 | -100.38784 | 8305 ft | 144 kts | 280° |
| 2026-05-07 04:44 | 30.71996 | -100.39910 | 8053 ft | 142 kts | 280° |
| 2026-05-07 04:44 | 30.72224 | -100.41020 | 7825 ft | 141 kts | 281° |
| 2026-05-07 04:45 | 30.72450 | -100.42130 | 7608 ft | 142 kts | 282° |
| 2026-05-07 04:45 | 30.72679 | -100.43247 | 7404 ft | 143 kts | 282° |
| 2026-05-07 04:45 | 30.72910 | -100.44364 | 7202 ft | 141 kts | 283° |
| 2026-05-07 04:45 | 30.73137 | -100.45470 | 6996 ft | 141 kts | 283° |
| 2026-05-07 04:46 | 30.73364 | -100.46574 | 6785 ft | 140 kts | 284° |
| 2026-05-07 04:46 | 30.73595 | -100.47697 | 6415 ft | 149 kts | 284° |
| 2026-05-07 04:46 | 30.73837 | -100.48870 | 6053 ft | 145 kts | 285° |
| 2026-05-07 04:46 | 30.74056 | -100.49958 | 5940 ft | 132 kts | 285° |
| 2026-05-07 04:47 | 30.74259 | -100.50966 | 5862 ft | 124 kts | 285° |
| 2026-05-07 04:47 | 30.74454 | -100.51921 | 5796 ft | 119 kts | 287° |
| 2026-05-07 04:47 | 30.74641 | -100.52836 | 5740 ft | 115 kts | 287° |
| 2026-05-07 04:47 | 30.74827 | -100.53746 | 5676 ft | 115 kts | 287° |
| 2026-05-07 04:48 | 30.75014 | -100.54649 | 5631 ft | 114 kts | 288° |
| 2026-05-07 04:48 | 30.75200 | -100.55549 | 5604 ft | 115 kts | 288° |
| 2026-05-07 04:48 | 30.75387 | -100.56455 | 5569 ft | 115 kts | 288° |
| 2026-05-07 04:48 | 30.75573 | -100.57363 | 5553 ft | 116 kts | 288° |
| 2026-05-07 04:49 | 30.75760 | -100.58272 | 5532 ft | 116 kts | 286° |
| 2026-05-07 04:49 | 30.75924 | -100.59194 | 5518 ft | 117 kts | 279° |
| 2026-05-07 04:49 | 30.75820 | -100.60147 | 5480 ft | 123 kts | 254° |
| 2026-05-07 04:49 | 30.75349 | -100.61019 | 5376 ft | 134 kts | 230° |
| 2026-05-07 04:50 | 30.74518 | -100.61582 | 5236 ft | 146 kts | 197° |
| 2026-05-07 04:50 | 30.73478 | -100.61743 | 5041 ft | 154 kts | 191° |
| 2026-05-07 04:50 | 30.72421 | -100.62007 | 4840 ft | 157 kts | 193° |
| 2026-05-07 04:50 | 30.71345 | -100.62258 | 4633 ft | 159 kts | 191° |
| 2026-05-07 04:51 | 30.70252 | -100.62478 | 4417 ft | 159 kts | 189° |
| 2026-05-07 04:51 | 30.69163 | -100.62691 | 4211 ft | 158 kts | 189° |
| 2026-05-07 04:51 | 30.68080 | -100.62909 | 3999 ft | 157 kts | 189° |
| 2026-05-07 04:51 | 30.67014 | -100.63130 | 3786 ft | 154 kts | 188° |
| 2026-05-07 04:52 | 30.65977 | -100.63341 | 3582 ft | 150 kts | 187° |
| 2026-05-07 04:52 | 30.64968 | -100.63563 | 3428 ft | 144 kts | 188° |
| 2026-05-07 04:52 | 30.64030 | -100.63895 | 3396 ft | 139 kts | 202° |
| 2026-05-07 04:52 | 30.63239 | -100.64335 | 3417 ft | 114 kts | 202° |
| 2026-05-07 04:53 | 30.62556 | -100.64723 | 3400 ft | 108 kts | 203° |
| 2026-05-07 04:53 | 30.61878 | -100.65114 | 3373 ft | 111 kts | 204° |
| 2026-05-07 04:53 | 30.61195 | -100.65521 | 3310 ft | 111 kts | 201° |
| 2026-05-07 04:53 | 30.60505 | -100.65927 | 3283 ft | 109 kts | 199° |
| 2026-05-07 04:54 | 30.59803 | -100.66231 | 3260 ft | 109 kts | 194° |
| 2026-05-07 04:54 | 30.59075 | -100.66495 | 3189 ft | 111 kts | 191° |
| 2026-05-07 04:54 | 30.58341 | -100.66757 | 3086 ft | 110 kts | 189° |
| 2026-05-07 04:54 | 30.57632 | -100.66814 | 2983 ft | 95 kts | 150° |
| 2026-05-07 04:55 | 30.57164 | -100.66297 | 2779 ft | 96 kts | 122° |
| 2026-05-07 04:55 | 30.56987 | -100.65613 | 2631 ft | 86 kts | 72° |
| 2026-05-07 04:55 | 30.57381 | -100.65132 | 2418 ft | 85 kts | 20° |
| 2026-05-07 04:55 | 30.57956 | -100.64983 | 2185 ft | 84 kts | 10° |
| 2026-05-07 04:56 | 30.58483 | -100.64876 | 2145 ft | 65 kts | 10° |
| 2026-05-07 04:56 | 30.58827 | -100.64806 | 2147 ft | 35 kts | 9° |
| 2026-05-07 04:56 | 30.59020 | -100.64767 | 2146 ft | 21 kts | 10° |
| 2026-05-07 04:56 | 30.59100 | -100.64763 | 2145 ft | 7 kts | 307° |
| 2026-05-07 04:57 | 30.59082 | -100.64790 | 2145 ft | 7 kts | 192° |
| 2026-05-07 04:57 | 30.59009 | -100.64805 | 2147 ft | 13 kts | 189° |
| 2026-05-07 04:57 | 30.58905 | -100.64826 | 2148 ft | 17 kts | 190° |
| 2026-05-07 04:57 | 30.58784 | -100.64850 | 2146 ft | 18 kts | 190° |
| 2026-05-07 04:58 | 30.58661 | -100.64875 | 2145 ft | 14 kts | 189° |
| 2026-05-07 04:58 | 30.58569 | -100.64893 | 2145 ft | 13 kts | 191° |
| 2026-05-07 04:58 | 30.58502 | -100.64907 | 2145 ft | 8 kts | 189° |
| 2026-05-07 04:58 | 30.58462 | -100.64917 | 2144 ft | 4 kts | 209° |
| 2026-05-07 04:59 | 30.58445 | -100.64945 | 2143 ft | 3 kts | 233° |
| 2026-05-07 04:59 | 30.58433 | -100.64953 | 2143 ft | 3 kts | 201° |
| 2026-05-07 04:59 | 30.58420 | -100.64953 | 2143 ft | 3 kts | 127° |
| 2026-05-07 04:59 | 30.58402 | -100.64926 | 2143 ft | 7 kts | 190° |
| 2026-05-07 05:00 | 30.58359 | -100.64940 | 2142 ft | 6 kts | 231° |
| 2026-05-07 05:00 | 30.58371 | -100.64959 | 2142 ft | 3 kts | 46° |
| 2026-05-07 05:00 | 30.58373 | -100.64953 | 2142 ft | 0 kts | 90° |